KE5YAP-1 Weather Reports


Display with metric or nautical units.
time (UTC)temp
F
wind
direction
speed
MPH
gust
MPH
rain 1hr
in
rain 24hr
in
rain mn
in
humidity
%
barometer
mb
20210126023919 55 220 2.0 4.0 0.00 0.22 0.21 37 987.2
20210126022917 56 242 2.0 5.0 0.00 0.22 0.21 35 987.2
20210126021917 56 243 3.0 5.0 0.00 0.22 0.21 35 987.1
20210126020918 56 234 3.0 5.0 0.00 0.23 0.21 35 987.1
20210126015917 57 240 2.0 5.0 0.00 0.23 0.21 34 987.0
20210126014917 58 226 3.0 6.0 0.00 0.23 0.21 33 986.9
20210126013916 58 236 3.0 6.0 0.00 0.23 0.21 32 986.7
20210126012917 59 226 3.0 6.0 0.00 0.23 0.21 31 986.4
20210126011919 59 229 3.0 6.0 0.00 0.23 0.21 31 986.3
20210126010916 59 231 3.0 5.0 0.00 0.23 0.21 30 986.1
20210126005917 60 235 3.0 7.0 0.00 0.23 0.21 30 985.9
20210126004917 60 226 4.0 7.0 0.00 0.23 0.21 30 985.9
20210126003917 60 245 4.0 8.0 0.00 0.23 0.21 30 985.8
20210126002916 61 242 3.0 7.0 0.00 0.23 0.21 29 985.7
20210126001920 61 229 3.0 8.0 0.00 0.23 0.21 29 985.6
20210126000916 62 222 5.0 9.0 0.00 0.23 0.21 28 985.5
20210125235916 63 234 5.0 8.0 0.00 0.23 0.21 27 985.4
20210125234916 63 246 6.0 10.0 0.00 0.23 0.21 26 985.3
20210125233917 64 242 4.0 7.0 0.00 0.23 0.21 26 985.1
20210125232920 64 248 3.0 9.0 0.00 0.23 0.21 25 985.0
20210125231917 64 255 9.0 15.0 0.00 0.23 0.21 25 984.9
20210125230916 65 247 9.0 14.0 0.00 0.24 0.21 25 984.8
20210125225918 65 242 11.0 15.0 0.00 0.24 0.21 24 984.4
20210125224920 65 243 6.0 12.0 0.00 0.24 0.21 25 984.4
20210125223917 65 239 7.0 11.0 0.00 0.24 0.21 26 984.2
20210125222917 65 238 5.0 12.0 0.00 0.28 0.21 27 984.1
20210125221921 65 240 11.0 15.0 0.00 0.33 0.21 26 984.1
20210125220924 65 242 8.0 13.0 0.00 0.33 0.21 28 983.9
20210125215917 65 248 6.0 11.0 0.00 0.35 0.21 27 983.9
20210125214916 65 227 5.0 8.0 0.00 0.37 0.21 28 983.8
20210125213917 64 274 5.0 13.0 0.00 0.39 0.21 27 983.8
20210125212918 64 249 11.0 17.0 0.00 0.39 0.21 29 983.6
20210125211928 64 255 11.0 15.0 0.00 0.40 0.21 29 983.7
20210125210917 64 257 8.0 12.0 0.00 0.42 0.21 30 983.7
20210125205917 64 256 7.0 16.0 0.00 0.42 0.21 30 983.7
20210125204920 64 264 11.0 16.0 0.00 0.42 0.21 30 983.6
20210125203916 65 267 8.0 18.0 0.00 0.42 0.21 29 983.7
20210125202921 65 254 11.0 21.0 0.00 0.42 0.21 27 983.7
20210125201916 65 246 11.0 18.0 0.00 0.42 0.21 30 984.1
20210125200918 65 251 9.0 17.0 0.00 0.42 0.21 32 984.0
20210125195916 65 248 12.0 16.0 0.00 0.42 0.21 31 984.1
20210125194923 65 246 9.0 12.0 0.00 0.42 0.21 36 984.2
20210125193917 64 254 6.0 11.0 0.00 0.42 0.21 39 984.3
20210125192917 64 246 11.0 15.0 0.00 0.42 0.21 39 984.4
20210125191919 63 262 8.0 12.0 0.00 0.42 0.21 39 984.3
20210125190922 62 252 6.0 16.0 0.00 0.42 0.21 43 984.4
20210125185921 62 241 2.0 10.0 0.00 0.42 0.21 47 984.6
20210125184916 61 243 10.0 15.0 0.00 0.42 0.21 58 984.7
20210125183916 60 250 12.0 15.0 0.00 0.42 0.21 62 984.8
20210125182916 60 251 11.0 16.0 0.00 0.42 0.21 63 985.2
20210125181917 60 252 10.0 14.0 0.00 0.42 0.21 64 985.5
20210125180915 59 240 9.0 15.0 0.00 0.42 0.21 65 985.6
20210125175922 59 252 5.0 14.0 0.00 0.42 0.21 67 985.6
20210125174930 58 252 5.0 12.0 0.00 0.42 0.21 70 985.9
20210125173920 57 247 11.0 15.0 0.00 0.42 0.21 71 985.9
20210125172918 56 241 8.0 13.0 0.00 0.42 0.21 73 986.0
20210125171925 55 247 8.0 15.0 0.00 0.42 0.21 74 986.0
20210125170916 55 245 6.0 13.0 0.00 0.42 0.21 75 986.3
20210125165920 54 245 9.0 12.0 0.00 0.42 0.21 76 986.2
20210125164931 54 246 8.0 14.0 0.00 0.42 0.21 76 986.2
20210125163917 53 248 7.0 11.0 0.00 0.42 0.21 77 986.2
20210125162922 53 255 4.0 11.0 0.00 0.42 0.21 79 986.3
20210125161920 52 267 6.0 10.0 0.00 0.42 0.21 80 986.3
20210125160924 51 266 8.0 12.0 0.00 0.42 0.21 80 986.0
20210125155916 51 272 5.0 12.0 0.00 0.42 0.21 81 985.9
20210125154916 50 268 4.0 9.0 0.00 0.42 0.21 82 985.8
20210125153917 50 257 8.0 13.0 0.00 0.42 0.21 83 985.7
20210125152916 49 257 6.0 12.0 0.00 0.42 0.21 83 985.5
20210125151916 49 265 9.0 16.0 0.00 0.42 0.21 83 985.2
20210125150917 49 262 9.0 15.0 0.00 0.42 0.21 84 984.9
20210125145916 49 254 7.0 12.0 0.00 0.42 0.21 84 984.9
20210125144916 49 255 6.0 12.0 0.00 0.42 0.21 85 984.8
20210125143920 49 249 9.0 16.0 0.00 0.42 0.21 85 984.7
20210125142915 48 248 7.0 17.0 0.00 0.42 0.21 85 984.6
20210125141918 48 252 6.0 9.0 0.00 0.42 0.21 85 984.2
20210125140916 48 248 5.0 7.0 0.00 0.42 0.21 85 984.2
20210125135920 49 255 5.0 11.0 0.00 0.42 0.21 85 984.0
20210125134916 49 250 5.0 10.0 0.00 0.42 0.21 85 983.8
20210125133916 49 266 6.0 12.0 0.00 0.42 0.21 85 983.6
20210125132919 49 264 4.0 9.0 0.00 0.42 0.21 85 983.6
20210125131915 50 273 5.0 9.0 0.00 0.42 0.21 85 983.4
20210125130917 50 260 5.0 10.0 0.00 0.42 0.21 86 983.4
20210125125916 51 249 5.0 8.0 0.00 0.42 0.21 86 983.3
20210125124918 51 249 6.0 8.0 0.00 0.42 0.21 86 983.1
20210125123915 51 276 5.0 8.0 0.00 0.42 0.21 86 982.6
20210125122916 52 247 3.0 5.0 0.01 0.42 0.21 86 982.8
20210125121915 52 250 3.0 7.0 0.01 0.42 0.21 86 982.6
20210125120927 52 259 6.0 10.0 0.11 0.42 0.21 86 982.6
20210125115915 53 269 5.0 8.0 0.14 0.42 0.21 86 982.5
20210125114918 53 278 2.0 7.0 0.16 0.42 0.21 86 982.5
20210125113915 53 277 3.0 12.0 0.18 0.42 0.21 86 983.0
20210125112915 54 240 4.0 10.0 0.17 0.41 0.20 86 983.0
20210125111920 54 279 5.0 7.0 0.17 0.41 0.20 86 982.2
20210125110917 54 289 7.0 11.0 0.07 0.31 0.10 86 982.3
20210125105917 55 288 12.0 18.0 0.04 0.28 0.07 86 982.1
20210125104917 58 281 13.0 19.0 0.02 0.26 0.05 85 981.9
20210125103915 64 176 12.0 16.0 0.00 0.24 0.03 88 980.3
20210125102918 64 165 11.0 15.0 0.00 0.24 0.03 88 980.5
20210125101915 64 167 12.0 15.0 0.00 0.24 0.03 88 980.5
20210125100915 64 166 14.0 19.0 0.00 0.24 0.03 88 980.7
20210125095920 64 164 14.0 17.0 0.00 0.24 0.03 88 980.4
20210125094921 64 164 13.0 19.0 0.00 0.24 0.03 88 980.8
20210125093915 64 170 14.0 21.0 0.00 0.24 0.03 88 980.6
20210125092915 64 169 13.0 19.0 0.00 0.24 0.03 88 981.2
20210125091918 64 167 11.0 18.0 0.00 0.24 0.03 88 981.5
20210125090919 64 172 11.0 14.0 0.00 0.24 0.03 88 981.5
20210125085918 64 168 11.0 17.0 0.00 0.24 0.03 88 981.7
20210125084916 64 172 11.0 16.0 0.00 0.24 0.03 88 982.0
20210125083917 64 170 10.0 16.0 0.00 0.24 0.03 88 982.0
20210125082917 64 162 11.0 15.0 0.00 0.24 0.03 88 981.7
20210125081917 64 156 10.0 17.0 0.00 0.24 0.03 88 981.6
20210125080917 64 162 12.0 17.0 0.01 0.24 0.03 88 982.0
20210125075919 64 169 10.0 14.0 0.01 0.24 0.03 88 982.4
20210125074917 64 177 10.0 15.0 0.02 0.24 0.03 88 981.9
20210125073917 63 146 9.0 12.0 0.03 0.24 0.03 88 981.6
20210125072920 62 132 9.0 12.0 0.03 0.25 0.03 88 981.8
20210125071917 62 124 5.0 8.0 0.03 0.25 0.03 88 982.4
20210125070918 62 134 3.0 4.0 0.02 0.24 0.02 88 983.3
20210125065918 61 127 4.0 5.0 0.02 0.24 0.02 88 983.1
20210125064917 61 0.0 0.0 0.02 0.23 0.01 88 983.6
20210125063917 61 128 1.0 3.0 0.01 0.22 0.00 88 984.2
20210125062917 61 128 1.0 2.0 0.01 0.22 0.00 88 984.1
20210125061919 61 128 0.0 1.0 0.01 0.22 0.00 88 983.9
20210125060916 61 128 4.0 7.0 0.01 0.22 0.00 88 983.9
20210125055919 60 121 4.0 6.0 0.01 0.22 0.22 88 984.0
20210125054916 60 130 6.0 8.0 0.00 0.21 0.21 88 984.3
20210125053918 60 134 5.0 8.0 0.00 0.21 0.21 88 984.4
20210125052921 60 131 5.0 8.0 0.00 0.21 0.21 88 984.6
20210125051916 59 131 8.0 11.0 0.00 0.21 0.21 88 984.8
20210125050916 59 140 5.0 9.0 0.00 0.21 0.21 88 984.8
20210125045917 59 145 5.0 10.0 0.00 0.21 0.21 88 985.0
20210125044916 59 128 8.0 12.0 0.00 0.21 0.21 88 984.9
20210125043921 59 141 10.0 15.0 0.00 0.21 0.21 88 985.2
20210125042920 59 139 9.0 12.0 0.00 0.21 0.21 88 985.2
20210125041916 59 130 7.0 14.0 0.00 0.21 0.21 88 984.9
20210125040921 58 144 9.0 14.0 0.00 0.21 0.21 88 984.9
20210125035919 58 138 9.0 13.0 0.00 0.21 0.21 88 984.8
20210125034921 58 126 9.0 14.0 0.00 0.21 0.21 88 984.8
20210125033931 57 117 9.0 14.0 0.00 0.21 0.21 88 984.8
20210125032917 57 119 11.0 15.0 0.00 0.21 0.21 88 985.0
20210125031917 57 129 8.0 10.0 0.00 0.21 0.21 88 985.5
20210125030916 57 126 7.0 12.0 0.01 0.21 0.21 88 986.0
20210125025918 56 165 5.0 8.0 0.01 0.21 0.21 88 986.2
20210125024916 56 131 9.0 14.0 0.01 0.21 0.21 88 985.8